createdAt,value
2019-02-02T00:00:31.157Z,96.78
2019-02-02T00:01:31.146Z,96.26
2019-02-02T00:02:31.228Z,96.37
2019-02-02T00:03:31.088Z,96.26
2019-02-02T00:04:31.085Z,96.47
2019-02-02T00:05:31.094Z,96.26
2019-02-02T00:06:31.082Z,96.16
2019-02-02T00:07:31.047Z,96.05
2019-02-02T00:08:31.047Z,96.58
2019-02-02T00:09:31.024Z,96.89
2019-02-02T00:10:31.008Z,96.68
2019-02-02T00:11:31.032Z,95.84
2019-02-02T00:12:30.990Z,95.84
2019-02-02T00:13:30.981Z,95.21
2019-02-02T00:14:31.001Z,95.21
2019-02-02T00:15:30.954Z,95.32
2019-02-02T00:16:30.976Z,95.32
2019-02-02T00:17:30.943Z,95.64
2019-02-02T00:18:30.929Z,95.70
2019-02-02T00:19:30.922Z,95.70
2019-02-02T00:20:30.909Z,95.53
2019-02-02T00:21:30.918Z,95.53
2019-02-02T00:22:30.902Z,95.53
2019-02-02T00:23:30.874Z,95.64
2019-02-02T00:24:30.857Z,95.53
2019-02-02T00:25:30.862Z,95.64
2019-02-02T00:26:30.868Z,95.74
2019-02-02T00:27:40.820Z,95.70
2019-02-02T00:28:31.834Z,95.80
2019-02-02T00:29:30.820Z,95.59
2019-02-02T00:30:30.796Z,95.74
2019-02-02T00:31:30.783Z,94.86
2019-02-02T00:32:30.805Z,94.90
2019-02-02T00:33:30.759Z,94.86
2019-02-02T00:34:30.749Z,95.01
2019-02-02T00:35:30.733Z,95.11
2019-02-02T00:36:30.733Z,95.28
2019-02-02T00:37:30.826Z,95.11
2019-02-02T00:38:30.729Z,95.21
2019-02-02T00:39:30.694Z,95.17
2019-02-02T00:40:30.683Z,95.07
2019-02-02T00:41:30.678Z,95.07
2019-02-02T00:42:30.688Z,95.84
2019-02-02T00:43:30.650Z,95.07
2019-02-02T00:44:30.638Z,94.76
2019-02-02T00:45:30.623Z,95.17
2019-02-02T00:46:30.615Z,95.11
2019-02-02T00:47:30.633Z,95.11
2019-02-02T00:48:30.605Z,95.01
2019-02-02T00:49:30.584Z,95.01
2019-02-02T00:50:30.582Z,94.90
2019-02-02T00:51:30.562Z,95.11
2019-02-02T00:52:30.582Z,95.32
2019-02-02T00:53:30.605Z,95.11
2019-02-02T00:54:30.548Z,95.84
2019-02-02T00:55:30.520Z,95.64
2019-02-02T00:56:30.508Z,95.95
2019-02-02T00:57:30.516Z,95.53
2019-02-02T00:58:30.525Z,95.64
2019-02-02T00:59:30.474Z,95.74
2019-02-02T01:00:30.489Z,95.74
2019-02-02T01:01:30.450Z,95.64
2019-02-02T01:02:30.439Z,95.84
2019-02-02T01:03:30.462Z,95.21
2019-02-02T01:04:30.425Z,95.11
2019-02-02T01:05:30.404Z,95.11
2019-02-02T01:06:30.395Z,94.90
2019-02-02T01:07:30.390Z,94.90
2019-02-02T01:08:30.405Z,95.11
2019-02-02T01:09:30.396Z,95.64
2019-02-02T01:10:30.351Z,94.90
2019-02-02T01:11:30.346Z,95.11
2019-02-02T01:12:30.342Z,94.80
2019-02-02T01:13:30.348Z,95.21
2019-02-02T01:14:30.307Z,95.84
2019-02-02T01:15:30.298Z,95.84
2019-02-02T01:16:30.287Z,94.90
2019-02-02T01:17:30.277Z,95.01
2019-02-02T01:18:30.291Z,94.80
2019-02-02T01:19:30.251Z,95.21
2019-02-02T01:20:30.389Z,95.53
2019-02-02T01:21:30.329Z,95.84
2019-02-02T01:22:30.327Z,95.53
2019-02-02T01:23:30.271Z,94.80
2019-02-02T01:24:30.208Z,95.01
2019-02-02T01:25:30.188Z,95.01
2019-02-02T01:26:30.197Z,94.65
2019-02-02T01:27:30.163Z,95.38
2019-02-02T01:28:30.197Z,95.28
2019-02-02T01:29:30.178Z,95.11
2019-02-02T01:30:30.133Z,95.43
2019-02-02T01:31:30.118Z,94.90
2019-02-02T01:32:30.108Z,94.59
2019-02-02T01:33:30.143Z,94.76
2019-02-02T01:34:30.086Z,94.44
2019-02-02T01:35:30.082Z,94.17
2019-02-02T01:36:30.078Z,94.34
2019-02-02T01:37:30.054Z,94.23
2019-02-02T01:38:30.081Z,94.55
2019-02-02T01:39:30.054Z,94.55
2019-02-02T01:40:30.025Z,93.71
2019-02-02T01:41:30.009Z,94.34
2019-02-02T01:42:30.000Z,94.34
2019-02-02T01:43:29.995Z,94.44
2019-02-02T01:44:30.005Z,93.92
2019-02-02T01:45:29.997Z,94.13
2019-02-02T01:46:29.957Z,94.02
2019-02-02T01:47:29.952Z,94.13
2019-02-02T01:48:29.934Z,93.92
2019-02-02T01:49:29.972Z,93.82
2019-02-02T01:50:29.909Z,93.96
2019-02-02T01:51:29.905Z,93.86
2019-02-02T01:52:29.889Z,93.96
2019-02-02T01:53:29.891Z,93.86
2019-02-02T01:54:29.895Z,93.96
2019-02-02T01:55:29.863Z,94.38
2019-02-02T01:56:29.846Z,94.17
2019-02-02T01:57:29.855Z,94.38
2019-02-02T01:58:29.828Z,94.07
2019-02-02T01:59:29.867Z,94.17
2019-02-02T02:00:29.801Z,93.96
2019-02-02T02:01:29.793Z,94.07
2019-02-02T02:02:29.783Z,94.49
2019-02-02T02:03:29.791Z,94.49
2019-02-02T02:04:29.793Z,94.07
2019-02-02T02:05:29.749Z,94.49
2019-02-02T02:06:29.737Z,93.96
2019-02-02T02:07:29.734Z,94.07
2019-02-02T02:08:29.713Z,94.07
2019-02-02T02:09:29.714Z,93.86
2019-02-02T02:10:29.736Z,94.07
2019-02-02T02:11:29.685Z,93.96
2019-02-02T02:12:29.688Z,94.49
2019-02-02T02:13:29.660Z,94.38
2019-02-02T02:14:29.650Z,94.38
2019-02-02T02:15:29.660Z,93.86
2019-02-02T02:16:29.657Z,93.76
2019-02-02T02:17:29.618Z,94.27
2019-02-02T02:18:29.604Z,94.27
2019-02-02T02:19:29.594Z,94.07
2019-02-02T02:20:29.613Z,93.96
2019-02-02T02:21:29.577Z,93.96
2019-02-02T02:22:40.615Z,94.49
2019-02-02T02:23:30.546Z,94.49
2019-02-02T02:24:29.538Z,93.96
2019-02-02T02:25:29.591Z,93.96
2019-02-02T02:26:29.517Z,93.96
2019-02-02T02:27:29.533Z,93.96
2019-02-02T02:28:29.496Z,93.96
2019-02-02T02:29:29.482Z,93.96
2019-02-02T02:30:29.473Z,93.86
2019-02-02T02:31:29.490Z,93.96
2019-02-02T02:32:29.456Z,94.07
2019-02-02T02:33:29.458Z,94.07
2019-02-02T02:34:29.473Z,94.27
2019-02-02T02:35:29.465Z,94.07
2019-02-02T02:36:29.433Z,94.17
2019-02-02T02:37:29.421Z,94.49
2019-02-02T02:38:29.459Z,94.27
2019-02-02T02:39:29.387Z,93.96
2019-02-02T02:40:29.367Z,94.07
2019-02-02T02:41:29.357Z,94.17
2019-02-02T02:42:29.346Z,93.96
2019-02-02T02:43:29.369Z,93.96
2019-02-02T02:44:29.323Z,94.38
2019-02-02T02:45:29.306Z,94.07
2019-02-02T02:46:29.295Z,93.86
2019-02-02T02:47:29.316Z,93.96
2019-02-02T02:48:29.295Z,93.86
2019-02-02T02:49:29.265Z,93.96
2019-02-02T02:50:29.260Z,93.96
2019-02-02T02:51:29.247Z,94.07
2019-02-02T02:52:29.260Z,94.38
2019-02-02T02:53:29.251Z,94.07
2019-02-02T02:54:29.216Z,94.27
2019-02-02T02:55:29.210Z,94.38
2019-02-02T02:56:29.216Z,94.27
2019-02-02T02:57:29.209Z,94.17
2019-02-02T02:58:40.382Z,93.86
2019-02-02T02:59:30.159Z,94.13
2019-02-02T03:00:29.145Z,93.96
2019-02-02T03:01:29.149Z,93.76
2019-02-02T03:02:29.150Z,93.71
2019-02-02T03:03:29.147Z,94.13
2019-02-02T03:04:29.106Z,94.13
2019-02-02T03:05:29.091Z,94.13
2019-02-02T03:06:29.075Z,94.02
2019-02-02T03:07:29.075Z,94.07
2019-02-02T03:08:29.080Z,93.92
2019-02-02T03:09:29.044Z,94.02
2019-02-02T03:10:29.035Z,94.02
2019-02-02T03:11:29.045Z,94.13
2019-02-02T03:12:29.042Z,94.34
2019-02-02T03:13:29.004Z,94.02
2019-02-02T03:14:28.987Z,93.82
2019-02-02T03:15:28.982Z,93.92
2019-02-02T03:16:28.967Z,94.02
2019-02-02T03:17:28.995Z,93.82
2019-02-02T03:18:28.984Z,93.61
2019-02-02T03:19:28.939Z,93.40
2019-02-02T03:20:28.928Z,93.35
2019-02-02T03:21:28.914Z,93.25
2019-02-02T03:22:28.921Z,92.73
2019-02-02T03:23:29.032Z,92.52
2019-02-02T03:24:28.903Z,92.73
2019-02-02T03:25:28.897Z,92.31
2019-02-02T03:26:28.857Z,92.63
2019-02-02T03:27:28.846Z,92.52
2019-02-02T03:28:28.867Z,92.52
2019-02-02T03:29:28.917Z,92.73
2019-02-02T03:30:28.826Z,92.21
2019-02-02T03:31:28.806Z,92.31
2019-02-02T03:32:28.794Z,92.31
2019-02-02T03:33:28.812Z,92.41
2019-02-02T03:34:28.798Z,92.52
2019-02-02T03:35:28.780Z,92.31
2019-02-02T03:36:28.757Z,92.41
2019-02-02T03:37:28.737Z,92.83
2019-02-02T03:38:28.732Z,92.41
2019-02-02T03:39:28.745Z,92.73
2019-02-02T03:40:28.728Z,92.41
2019-02-02T03:41:28.717Z,92.52
2019-02-02T03:42:28.694Z,92.73
2019-02-02T03:43:28.673Z,92.52
2019-02-02T03:44:28.684Z,92.94
2019-02-02T03:45:28.650Z,92.41
2019-02-02T03:46:28.658Z,92.63
2019-02-02T03:47:28.663Z,92.83
2019-02-02T03:48:28.633Z,92.41
2019-02-02T03:49:28.636Z,92.73
2019-02-02T03:50:28.600Z,92.10
2019-02-02T03:51:28.592Z,91.58
2019-02-02T03:52:28.582Z,91.69
2019-02-02T03:53:28.564Z,91.79
2019-02-02T03:54:28.557Z,91.64
2019-02-02T03:55:28.571Z,91.43
2019-02-02T03:56:28.546Z,91.02
2019-02-02T03:57:28.527Z,91.75
2019-02-02T03:58:28.523Z,91.85
2019-02-02T03:59:28.496Z,91.89
2019-02-02T04:00:28.547Z,91.96
2019-02-02T04:01:30.203Z,92.27
2019-02-02T04:02:28.504Z,92.69
2019-02-02T04:03:28.463Z,92.73
2019-02-02T04:04:28.438Z,92.27
2019-02-02T04:05:28.464Z,91.75
2019-02-02T04:06:28.418Z,91.75
2019-02-02T04:07:28.420Z,91.58
2019-02-02T04:08:28.399Z,91.64
2019-02-02T04:09:28.382Z,91.33
2019-02-02T04:10:28.415Z,91.33
2019-02-02T04:11:28.365Z,90.70
2019-02-02T04:12:28.356Z,90.81
2019-02-02T04:13:28.353Z,91.22
2019-02-02T04:14:28.332Z,91.02
2019-02-02T04:15:28.461Z,90.91
2019-02-02T04:16:28.307Z,91.12
2019-02-02T04:17:28.299Z,90.70
2019-02-02T04:18:28.291Z,90.70
2019-02-02T04:19:28.277Z,91.12
2019-02-02T04:20:28.293Z,90.70
2019-02-02T04:21:28.262Z,90.91
2019-02-02T04:22:28.251Z,90.18
2019-02-02T04:23:28.244Z,90.45
2019-02-02T04:24:28.227Z,90.70
2019-02-02T04:25:28.234Z,90.91
2019-02-02T04:26:28.216Z,90.91
2019-02-02T04:27:28.183Z,90.87
2019-02-02T04:28:28.173Z,90.70
2019-02-02T04:29:28.162Z,90.60
2019-02-02T04:30:28.154Z,90.70
2019-02-02T04:31:28.170Z,90.81
2019-02-02T04:32:28.132Z,90.70
2019-02-02T04:33:28.118Z,90.50
2019-02-02T04:34:28.143Z,90.39
2019-02-02T04:35:28.095Z,90.39
2019-02-02T04:36:28.146Z,90.50
2019-02-02T04:37:28.074Z,90.28
2019-02-02T04:38:28.063Z,90.77
2019-02-02T04:39:28.062Z,90.97
2019-02-02T04:40:28.053Z,90.60
2019-02-02T04:41:28.033Z,90.50
2019-02-02T04:42:28.045Z,90.50
2019-02-02T04:43:28.010Z,91.02
2019-02-02T04:44:28.002Z,90.91
2019-02-02T04:45:27.987Z,91.02
2019-02-02T04:46:28.009Z,91.33
2019-02-02T04:47:27.968Z,91.54
2019-02-02T04:48:27.958Z,91.43
2019-02-02T04:49:27.947Z,91.75
2019-02-02T04:50:28.034Z,92.27
2019-02-02T04:51:27.945Z,92.37
2019-02-02T04:52:27.936Z,92.85
2019-02-02T04:53:27.916Z,92.33
2019-02-02T04:54:27.929Z,92.06
2019-02-02T04:55:27.877Z,92.22
2019-02-02T04:56:27.866Z,92.37
2019-02-02T04:57:27.909Z,92.37
2019-02-02T04:58:27.843Z,92.47
2019-02-02T04:59:29.190Z,92.90
2019-02-02T05:00:27.974Z,92.58
2019-02-02T05:01:27.811Z,92.79
2019-02-02T05:02:30.371Z,92.37
2019-02-02T05:03:27.790Z,92.69
2019-02-02T05:04:27.789Z,92.58
2019-02-02T05:05:27.777Z,92.58
2019-02-02T05:06:27.757Z,92.65
2019-02-02T05:07:27.799Z,92.58
2019-02-02T05:08:27.733Z,92.85
2019-02-02T05:09:27.728Z,93.06
2019-02-02T05:10:27.716Z,92.96
2019-02-02T05:11:27.724Z,92.96
2019-02-02T05:12:27.690Z,93.06
2019-02-02T05:13:27.723Z,93.16
2019-02-02T05:14:27.667Z,93.16
2019-02-02T05:15:27.657Z,93.06
2019-02-02T05:16:27.653Z,92.96
2019-02-02T05:17:27.648Z,93.16
2019-02-02T05:18:27.669Z,92.85
2019-02-02T05:19:27.613Z,92.85
2019-02-02T05:20:27.603Z,92.85
2019-02-02T05:21:27.589Z,92.96
2019-02-02T05:22:27.603Z,92.96
2019-02-02T05:23:27.688Z,92.75
2019-02-02T05:24:27.559Z,93.27
2019-02-02T05:25:27.545Z,92.96
2019-02-02T05:26:27.543Z,92.75
2019-02-02T05:27:27.524Z,92.65
2019-02-02T05:28:27.545Z,92.65
2019-02-02T05:29:27.509Z,92.33
2019-02-02T05:30:27.491Z,92.33
2019-02-02T05:31:27.480Z,92.54
2019-02-02T05:32:27.474Z,92.02
2019-02-02T05:33:27.487Z,92.02
2019-02-02T05:34:27.453Z,92.54
2019-02-02T05:35:27.453Z,92.02
2019-02-02T05:36:27.424Z,92.12
2019-02-02T05:37:27.425Z,92.02
2019-02-02T05:38:27.424Z,92.33
2019-02-02T05:39:27.453Z,92.22
2019-02-02T05:40:27.384Z,92.12
2019-02-02T05:41:27.370Z,92.22
2019-02-02T05:42:27.361Z,92.54
2019-02-02T05:43:27.346Z,92.44
2019-02-02T05:44:27.459Z,92.54
2019-02-02T05:45:27.334Z,92.44
2019-02-02T05:46:27.318Z,92.65
2019-02-02T05:47:27.302Z,92.16
2019-02-02T05:48:27.294Z,92.33
2019-02-02T05:49:27.310Z,92.06
2019-02-02T05:50:27.275Z,92.12
2019-02-02T05:51:27.265Z,92.02
2019-02-02T05:52:27.248Z,92.12
2019-02-02T05:53:27.328Z,92.22
2019-02-02T05:54:27.253Z,92.33
2019-02-02T05:55:27.221Z,92.85
2019-02-02T05:56:27.326Z,92.33
2019-02-02T05:57:27.196Z,92.54
2019-02-02T05:58:27.181Z,92.54
2019-02-02T05:59:27.216Z,92.12
2019-02-02T06:00:27.163Z,92.75
2019-02-02T06:01:29.974Z,92.54
2019-02-02T06:02:27.151Z,92.37
2019-02-02T06:03:27.137Z,92.79
2019-02-02T06:04:27.118Z,92.47
2019-02-02T06:05:27.129Z,92.12
2019-02-02T06:06:27.093Z,92.02
2019-02-02T06:07:27.094Z,92.12
2019-02-02T06:08:27.077Z,92.12
2019-02-02T06:09:27.084Z,92.44
2019-02-02T06:10:27.075Z,92.65
2019-02-02T06:11:27.048Z,92.65
2019-02-02T06:12:27.027Z,91.29
2019-02-02T06:13:27.038Z,91.08
2019-02-02T06:14:27.025Z,90.87
2019-02-02T06:15:28.619Z,90.87
2019-02-02T06:16:26.982Z,90.87
2019-02-02T06:17:26.978Z,90.87
2019-02-02T06:18:26.962Z,90.97
2019-02-02T06:19:26.948Z,91.08
2019-02-02T06:20:27.019Z,91.08
2019-02-02T06:21:26.975Z,91.50
2019-02-02T06:22:26.917Z,91.39
2019-02-02T06:23:26.903Z,91.71
2019-02-02T06:24:26.900Z,91.50
2019-02-02T06:25:26.935Z,91.08
2019-02-02T06:26:26.905Z,90.97
2019-02-02T06:27:26.860Z,90.87
2019-02-02T06:28:26.850Z,91.08
2019-02-02T06:29:26.869Z,91.71
2019-02-02T06:30:26.868Z,91.39
2019-02-02T06:31:26.880Z,91.39
2019-02-02T06:32:26.811Z,91.39
2019-02-02T06:33:26.795Z,90.97
2019-02-02T06:34:26.807Z,90.77
2019-02-02T06:35:26.804Z,91.60
2019-02-02T06:36:26.778Z,91.39
2019-02-02T06:37:26.752Z,91.50
2019-02-02T06:38:26.746Z,91.71
2019-02-02T06:39:26.729Z,91.71
2019-02-02T06:40:26.719Z,91.29
2019-02-02T06:41:26.743Z,91.08
2019-02-02T06:42:26.725Z,90.97
2019-02-02T06:43:26.689Z,91.08
2019-02-02T06:44:26.694Z,91.08
2019-02-02T06:45:26.664Z,90.77
2019-02-02T06:46:26.677Z,91.39
2019-02-02T06:47:26.648Z,91.39
2019-02-02T06:48:26.631Z,91.39
2019-02-02T06:49:26.619Z,91.39
2019-02-02T06:50:26.631Z,91.18
2019-02-02T06:51:26.635Z,91.50
2019-02-02T06:52:26.584Z,91.39
2019-02-02T06:53:26.581Z,90.77
2019-02-02T06:54:26.565Z,91.29
2019-02-02T06:55:26.561Z,91.29
2019-02-02T06:56:26.573Z,91.60
2019-02-02T06:57:26.546Z,91.29
2019-02-02T06:58:26.527Z,91.81
2019-02-02T06:59:26.513Z,92.47
2019-02-02T07:00:26.722Z,92.22
2019-02-02T07:01:26.514Z,91.91
2019-02-02T07:02:26.473Z,92.02
2019-02-02T07:03:26.462Z,92.33
2019-02-02T07:04:26.477Z,92.37
2019-02-02T07:05:26.460Z,92.37
2019-02-02T07:06:26.463Z,92.06
2019-02-02T07:07:26.430Z,92.54
2019-02-02T07:08:26.407Z,92.16
2019-02-02T07:09:26.399Z,92.37
2019-02-02T07:10:26.396Z,92.37
2019-02-02T07:11:26.380Z,91.85
2019-02-02T07:12:26.411Z,92.58
2019-02-02T07:13:26.359Z,92.47
2019-02-02T07:14:26.346Z,92.54
2019-02-02T07:15:26.338Z,92.54
2019-02-02T07:16:26.342Z,92.69
2019-02-02T07:17:26.340Z,92.79
2019-02-02T07:18:26.298Z,92.85
2019-02-02T07:19:29.029Z,92.79
2019-02-02T07:20:26.306Z,92.58
2019-02-02T07:21:26.275Z,92.27
2019-02-02T07:22:26.293Z,92.58
2019-02-02T07:23:26.244Z,92.37
2019-02-02T07:24:26.357Z,92.27
2019-02-02T07:25:26.222Z,92.47
2019-02-02T07:26:26.211Z,92.37
2019-02-02T07:27:26.252Z,92.06
2019-02-02T07:28:26.191Z,92.16
2019-02-02T07:29:26.221Z,92.27
2019-02-02T07:30:28.996Z,92.27
2019-02-02T07:31:26.158Z,92.27
2019-02-02T07:32:26.166Z,92.58
2019-02-02T07:33:26.145Z,92.58
2019-02-02T07:34:26.175Z,92.37
2019-02-02T07:35:26.114Z,92.37
2019-02-02T07:36:26.106Z,92.27
2019-02-02T07:37:26.116Z,92.47
2019-02-02T07:38:26.077Z,92.16
2019-02-02T07:39:26.068Z,92.47
2019-02-02T07:40:26.065Z,91.96
2019-02-02T07:41:26.046Z,92.27
2019-02-02T07:42:26.060Z,91.75
2019-02-02T07:43:26.055Z,91.75
2019-02-02T07:44:26.015Z,91.64
2019-02-02T07:45:26.005Z,91.33
2019-02-02T07:46:26.012Z,91.85
2019-02-02T07:47:26.021Z,91.75
2019-02-02T07:48:25.981Z,91.64
2019-02-02T07:49:25.980Z,91.54
2019-02-02T07:50:25.949Z,91.75
2019-02-02T07:51:25.935Z,91.60
2019-02-02T07:52:25.923Z,90.77
2019-02-02T07:53:25.962Z,91.29
2019-02-02T07:54:25.933Z,91.33
2019-02-02T07:55:25.888Z,90.97
2019-02-02T07:56:25.897Z,90.87
2019-02-02T07:57:25.872Z,90.81
2019-02-02T07:58:25.889Z,90.81
2019-02-02T07:59:25.904Z,90.70
2019-02-02T08:00:25.839Z,91.54
2019-02-02T08:01:25.857Z,91.43
2019-02-02T08:02:25.828Z,91.43
2019-02-02T08:03:25.814Z,91.33
2019-02-02T08:04:25.793Z,91.75
2019-02-02T08:05:25.812Z,91.54
2019-02-02T08:06:25.769Z,91.91
2019-02-02T08:07:25.765Z,91.39
2019-02-02T08:08:25.780Z,91.54
2019-02-02T08:09:25.747Z,91.08
2019-02-02T08:10:25.725Z,90.77
2019-02-02T08:11:25.731Z,90.97
2019-02-02T08:12:25.705Z,90.77
2019-02-02T08:13:25.729Z,91.29
2019-02-02T08:14:25.687Z,91.71
2019-02-02T08:15:25.698Z,91.81
2019-02-02T08:16:25.662Z,91.71
2019-02-02T08:17:25.646Z,91.81
2019-02-02T08:18:25.643Z,91.39
2019-02-02T08:19:25.902Z,91.39
2019-02-02T08:20:25.632Z,91.50
2019-02-02T08:21:25.613Z,91.29
2019-02-02T08:22:25.594Z,90.66
2019-02-02T08:23:25.640Z,90.77
2019-02-02T08:24:25.578Z,90.97
2019-02-02T08:25:25.590Z,91.08
2019-02-02T08:26:25.555Z,91.64
2019-02-02T08:27:25.542Z,91.50
2019-02-02T08:28:25.530Z,91.39
2019-02-02T08:29:25.557Z,92.02
2019-02-02T08:30:25.629Z,91.29
2019-02-02T08:31:25.509Z,91.91
2019-02-02T08:32:25.506Z,91.39
2019-02-02T08:33:25.476Z,91.50
2019-02-02T08:34:25.542Z,91.71
2019-02-02T08:35:25.451Z,91.60
2019-02-02T08:36:25.539Z,91.46
2019-02-02T08:37:25.428Z,91.39
2019-02-02T08:38:25.428Z,91.39
2019-02-02T08:39:29.195Z,91.08
2019-02-02T08:40:25.418Z,91.50
2019-02-02T08:41:25.416Z,91.60
2019-02-02T08:42:25.423Z,91.39
2019-02-02T08:43:25.425Z,92.02
2019-02-02T08:44:25.386Z,91.56
2019-02-02T08:45:25.383Z,91.39
2019-02-02T08:46:25.357Z,91.39
2019-02-02T08:47:25.325Z,92.65
2019-02-02T08:48:25.306Z,92.65
2019-02-02T08:49:25.296Z,92.54
2019-02-02T08:50:25.307Z,92.12
2019-02-02T08:52:26.532Z,92.44
2019-02-02T08:53:25.257Z,91.71
2019-02-02T08:54:25.245Z,91.71
2019-02-02T08:55:25.256Z,92.22
2019-02-02T08:56:25.299Z,92.02
2019-02-02T08:57:25.291Z,92.33
2019-02-02T08:58:25.269Z,92.54
2019-02-02T08:59:25.185Z,92.54
2019-02-02T09:00:25.248Z,92.33
2019-02-02T09:01:25.184Z,92.12
2019-02-02T09:02:25.149Z,91.81
2019-02-02T09:03:25.147Z,92.02
2019-02-02T09:04:25.161Z,92.12
2019-02-02T09:05:25.165Z,91.81
2019-02-02T09:06:25.134Z,91.71
2019-02-02T09:07:25.105Z,92.02
2019-02-02T09:08:25.092Z,92.44
2019-02-02T09:09:25.083Z,92.54
2019-02-02T09:10:25.062Z,92.54
2019-02-02T09:11:25.079Z,91.60
2019-02-02T09:12:25.048Z,91.71
2019-02-02T09:13:25.034Z,91.29
2019-02-02T09:14:25.019Z,91.71
2019-02-02T09:15:25.025Z,91.77
2019-02-02T09:16:25.022Z,91.39
2019-02-02T09:17:24.987Z,91.50
2019-02-02T09:18:24.989Z,91.14
2019-02-02T09:19:24.994Z,91.14
2019-02-02T09:20:24.959Z,90.20
2019-02-02T09:21:24.982Z,90.20
2019-02-02T09:22:24.941Z,90.52
2019-02-02T09:23:24.932Z,90.62
2019-02-02T09:24:24.908Z,90.45
2019-02-02T09:25:24.903Z,90.45
2019-02-02T09:26:24.921Z,90.41
2019-02-02T09:27:24.911Z,90.41
2019-02-02T09:28:24.866Z,90.20
2019-02-02T09:29:24.857Z,90.10
2019-02-02T09:30:24.860Z,90.72
2019-02-02T09:31:24.867Z,90.00
2019-02-02T09:32:24.823Z,90.00
2019-02-02T09:33:24.811Z,90.20
2019-02-02T09:34:24.800Z,90.00
2019-02-02T09:35:24.788Z,90.00
2019-02-02T09:36:24.780Z,90.31
2019-02-02T09:37:24.888Z,90.10
2019-02-02T09:38:24.752Z,90.10
2019-02-02T09:39:24.746Z,90.00
2019-02-02T09:40:25.618Z,90.37
2019-02-02T09:41:24.744Z,89.89
2019-02-02T09:42:24.741Z,89.75
2019-02-02T09:43:24.739Z,89.95
2019-02-02T09:44:24.692Z,89.75
2019-02-02T09:45:24.676Z,89.75
2019-02-02T09:46:24.668Z,90.06
2019-02-02T09:47:24.785Z,89.75
2019-02-02T09:48:24.641Z,89.81
2019-02-02T09:49:24.645Z,90.37
2019-02-02T09:50:24.634Z,89.22
2019-02-02T09:51:24.616Z,89.22
2019-02-02T09:52:24.628Z,89.32
2019-02-02T09:53:24.588Z,90.26
2019-02-02T09:54:26.585Z,88.81
2019-02-02T09:55:24.574Z,88.91
2019-02-02T09:56:24.559Z,90.06
2019-02-02T09:57:27.752Z,89.95
2019-02-02T09:58:24.571Z,90.00
2019-02-02T09:59:24.528Z,89.89
2019-02-02T10:00:24.521Z,90.26
2019-02-02T10:01:27.828Z,89.85
2019-02-02T10:02:26.982Z,89.95
2019-02-02T10:03:24.502Z,90.06
2019-02-02T10:04:24.467Z,89.85
2019-02-02T10:05:24.459Z,90.06
2019-02-02T10:06:24.458Z,90.00
2019-02-02T10:07:24.495Z,90.10
2019-02-02T10:08:24.445Z,90.00
2019-02-02T10:09:24.457Z,89.95
2019-02-02T10:10:24.408Z,89.85
2019-02-02T10:11:24.397Z,89.26
2019-02-02T10:12:24.385Z,89.68
2019-02-02T10:13:24.401Z,90.06
2019-02-02T10:14:24.357Z,90.06
2019-02-02T10:15:24.351Z,90.06
2019-02-02T10:16:24.356Z,89.95
2019-02-02T10:17:24.348Z,89.43
2019-02-02T10:18:24.350Z,89.22
2019-02-02T10:19:24.305Z,89.12
2019-02-02T10:20:24.291Z,88.91
2019-02-02T10:21:24.282Z,88.70
2019-02-02T10:22:24.269Z,88.60
2019-02-02T10:23:24.289Z,88.29
2019-02-02T10:24:24.249Z,88.43
2019-02-02T10:25:24.236Z,88.29
2019-02-02T10:26:24.247Z,88.43
2019-02-02T10:27:24.220Z,87.97
2019-02-02T10:28:24.272Z,88.43
2019-02-02T10:29:24.201Z,88.95
2019-02-02T10:30:24.198Z,88.22
2019-02-02T10:31:24.170Z,88.32
2019-02-02T10:32:24.163Z,88.01
2019-02-02T10:33:24.148Z,89.26
2019-02-02T10:34:24.170Z,89.78
2019-02-02T10:35:24.129Z,88.75
2019-02-02T10:36:24.117Z,89.16
2019-02-02T10:37:24.107Z,89.16
2019-02-02T10:38:24.098Z,89.22
2019-02-02T10:39:24.111Z,88.12
2019-02-02T10:40:24.082Z,88.32
2019-02-02T10:41:24.069Z,89.06
2019-02-02T10:42:24.053Z,88.53
2019-02-02T10:43:24.049Z,88.53
2019-02-02T10:44:24.047Z,88.43
2019-02-02T10:45:24.048Z,88.75
2019-02-02T10:46:24.033Z,89.06
2019-02-02T10:47:24.071Z,88.01
2019-02-02T10:48:23.987Z,88.70
2019-02-02T10:49:24.157Z,89.01
2019-02-02T10:50:23.981Z,88.70
2019-02-02T10:51:25.499Z,88.29
2019-02-02T10:52:23.945Z,88.39
2019-02-02T10:53:23.947Z,88.39
2019-02-02T10:54:23.953Z,88.29
2019-02-02T10:55:23.922Z,88.49
2019-02-02T10:56:23.896Z,87.87
2019-02-02T10:57:23.889Z,87.45
2019-02-02T10:58:23.874Z,87.66
2019-02-02T10:59:23.870Z,88.29
2019-02-02T11:00:23.947Z,87.35
2019-02-02T11:01:23.845Z,87.35
2019-02-02T11:02:23.830Z,88.24
2019-02-02T11:03:23.824Z,88.45
2019-02-02T11:04:23.848Z,87.73
2019-02-02T11:05:23.939Z,87.35
2019-02-02T11:06:23.851Z,86.72
2019-02-02T11:07:23.848Z,87.04
2019-02-02T11:08:23.913Z,87.70
2019-02-02T11:09:23.820Z,87.39
2019-02-02T11:10:23.875Z,88.53
2019-02-02T11:11:23.860Z,88.08
2019-02-02T11:12:23.856Z,88.18
2019-02-02T11:13:23.753Z,88.49
2019-02-02T11:14:23.718Z,88.32
2019-02-02T11:15:23.775Z,87.32
2019-02-02T11:16:23.751Z,87.91
2019-02-02T11:17:23.717Z,88.57
2019-02-02T11:18:23.712Z,88.16
2019-02-02T11:19:23.723Z,88.78
2019-02-02T11:20:23.673Z,89.31
2019-02-02T11:21:23.683Z,90.45
2019-02-02T11:22:23.620Z,89.93
2019-02-02T11:23:23.746Z,89.93
2019-02-02T11:24:23.595Z,90.14
2019-02-02T11:25:23.648Z,90.66
2019-02-02T11:26:23.698Z,90.77
2019-02-02T11:27:23.592Z,90.41
2019-02-02T11:28:23.812Z,90.52
2019-02-02T11:29:23.562Z,90.20
2019-02-02T11:30:23.573Z,90.31
2019-02-02T11:31:23.512Z,89.89
2019-02-02T11:32:23.507Z,90.10
2019-02-02T11:33:23.496Z,88.99
2019-02-02T11:34:23.480Z,89.41
2019-02-02T11:35:23.467Z,89.78
2019-02-02T11:36:23.499Z,90.35
2019-02-02T11:37:23.446Z,90.52
2019-02-02T11:38:23.571Z,90.66
2019-02-02T11:39:23.424Z,90.45
2019-02-02T11:40:23.417Z,90.03
2019-02-02T11:41:23.433Z,90.03
2019-02-02T11:42:23.400Z,90.03
2019-02-02T11:43:23.383Z,90.35
2019-02-02T11:44:23.381Z,90.41
2019-02-02T11:45:23.357Z,90.14
2019-02-02T11:46:23.370Z,89.89
2019-02-02T11:47:23.337Z,89.10
2019-02-02T11:48:23.345Z,89.31
2019-02-02T11:49:24.043Z,90.45
2019-02-02T11:50:23.323Z,90.14
2019-02-02T11:51:23.325Z,90.10
2019-02-02T11:52:23.494Z,89.89
2019-02-02T11:53:23.274Z,88.99
2019-02-02T11:54:23.261Z,89.06
2019-02-02T11:55:23.259Z,90.31
2019-02-02T11:56:23.241Z,89.37
2019-02-02T11:57:23.253Z,88.75
2019-02-02T11:58:23.222Z,88.89
2019-02-02T11:59:23.206Z,89.41
2019-02-02T12:00:23.211Z,89.78
2019-02-02T12:01:23.190Z,90.00
2019-02-02T12:02:23.252Z,89.62
2019-02-02T12:03:23.166Z,88.89
2019-02-02T12:04:23.164Z,88.68
2019-02-02T12:05:23.158Z,89.10
2019-02-02T12:06:23.139Z,88.99
2019-02-02T12:07:23.147Z,89.10
2019-02-02T12:08:23.105Z,88.43
2019-02-02T12:09:23.096Z,88.99
2019-02-02T12:10:23.110Z,88.37
2019-02-02T12:11:23.074Z,88.89
2019-02-02T12:12:23.089Z,88.99
2019-02-02T12:13:23.070Z,88.16
2019-02-02T12:14:23.048Z,88.68
2019-02-02T12:15:23.030Z,88.57
2019-02-02T12:16:23.023Z,89.37
2019-02-02T12:17:23.037Z,88.85
2019-02-02T12:18:23.160Z,88.89
2019-02-02T12:19:22.984Z,89.06
2019-02-02T12:20:22.980Z,88.75
2019-02-02T12:21:22.993Z,88.85
2019-02-02T12:22:22.954Z,89.26
2019-02-02T12:23:22.974Z,88.12
2019-02-02T12:24:22.932Z,88.32
2019-02-02T12:25:22.935Z,87.81
2019-02-02T12:26:22.945Z,88.85
2019-02-02T12:27:22.902Z,89.37
2019-02-02T12:28:22.915Z,90.20
2019-02-02T12:29:22.878Z,90.20
2019-02-02T12:30:22.865Z,90.10
2019-02-02T12:31:22.852Z,90.41
2019-02-02T12:32:26.724Z,89.06
2019-02-02T12:33:25.764Z,89.06
2019-02-02T12:34:22.820Z,89.10
2019-02-02T12:35:22.827Z,90.14
2019-02-02T12:36:22.831Z,90.35
2019-02-02T12:37:22.785Z,91.08
2019-02-02T12:38:22.815Z,91.29
2019-02-02T12:39:22.765Z,90.77
2019-02-02T12:40:22.767Z,91.29
2019-02-02T12:41:22.742Z,91.50
2019-02-02T12:42:22.741Z,91.08
2019-02-02T12:43:22.761Z,91.60
2019-02-02T12:44:22.732Z,91.75
2019-02-02T12:45:22.712Z,92.69
2019-02-02T12:46:22.700Z,92.06
2019-02-02T12:47:22.692Z,92.79
2019-02-02T12:48:22.707Z,93.10
2019-02-02T12:49:22.706Z,92.69
2019-02-02T12:50:22.654Z,92.79
2019-02-02T12:51:22.635Z,93.31
2019-02-02T12:52:25.366Z,93.52
2019-02-02T12:53:22.645Z,94.04